createdAt,value
2023-04-02T00:00:02.000Z,91.58
2023-04-02T00:01:02.000Z,91.58
2023-04-02T00:02:02.000Z,91.58
2023-04-02T00:03:02.000Z,91.58
2023-04-02T00:04:02.000Z,91.69
2023-04-02T00:05:02.000Z,91.48
2023-04-02T00:06:02.000Z,91.38
2023-04-02T00:07:02.000Z,91.28
2023-04-02T00:08:02.000Z,90.97
2023-04-02T00:09:01.000Z,90.86
2023-04-02T00:10:01.000Z,90.76
2023-04-02T00:11:01.000Z,90.66
2023-04-02T00:12:01.000Z,90.76
2023-04-02T00:13:01.000Z,90.70
2023-04-02T00:14:01.000Z,90.55
2023-04-02T00:15:01.000Z,90.80
2023-04-02T00:16:01.000Z,91.01
2023-04-02T00:17:01.000Z,91.22
2023-04-02T00:18:01.000Z,91.22
2023-04-02T00:19:01.000Z,91.22
2023-04-02T00:20:01.000Z,91.22
2023-04-02T00:21:01.000Z,91.22
2023-04-02T00:22:01.000Z,91.11
2023-04-02T00:23:01.000Z,90.91
2023-04-02T00:24:01.000Z,90.70
2023-04-02T00:25:01.000Z,90.59
2023-04-02T00:26:01.000Z,90.80
2023-04-02T00:27:01.000Z,91.01
2023-04-02T00:28:01.000Z,90.91
2023-04-02T00:29:01.000Z,91.01
2023-04-02T00:30:01.000Z,91.11
2023-04-02T00:31:01.000Z,90.91
2023-04-02T00:32:01.000Z,90.91
2023-04-02T00:33:01.000Z,90.70
2023-04-02T00:34:01.000Z,90.70
2023-04-02T00:35:01.000Z,90.95
2023-04-02T00:36:01.000Z,90.91
2023-04-02T00:37:01.000Z,91.11
2023-04-02T00:38:01.000Z,91.16
2023-04-02T00:39:01.000Z,91.26
2023-04-02T00:40:01.000Z,91.16
2023-04-02T00:41:01.000Z,90.91
2023-04-02T00:42:01.000Z,90.74
2023-04-02T00:43:01.000Z,90.74
2023-04-02T00:44:01.000Z,90.84
2023-04-02T00:45:01.000Z,91.05
2023-04-02T00:46:01.000Z,91.16
2023-04-02T00:47:01.000Z,91.26
2023-04-02T00:48:01.000Z,91.36
2023-04-02T00:49:01.000Z,91.36
2023-04-02T00:50:01.000Z,91.26
2023-04-02T00:51:01.000Z,90.95
2023-04-02T00:52:01.000Z,91.05
2023-04-02T00:53:01.000Z,91.16
2023-04-02T00:54:01.000Z,91.26
2023-04-02T00:55:01.000Z,91.05
2023-04-02T00:56:01.000Z,90.74
2023-04-02T00:57:01.000Z,90.68
2023-04-02T00:58:01.000Z,90.78
2023-04-02T00:59:01.000Z,90.89
2023-04-02T01:00:01.000Z,91.09
2023-04-02T01:01:01.000Z,91.20
2023-04-02T01:02:01.000Z,90.99
2023-04-02T01:03:01.000Z,90.89
2023-04-02T01:04:01.000Z,90.37
2023-04-02T01:05:01.000Z,90.37
2023-04-02T01:06:01.000Z,90.68
2023-04-02T01:07:01.000Z,90.78
2023-04-02T01:08:01.000Z,91.09
2023-04-02T01:09:01.000Z,91.30
2023-04-02T01:10:01.000Z,91.30
2023-04-02T01:11:01.000Z,91.30
2023-04-02T01:12:01.000Z,91.20
2023-04-02T01:13:01.000Z,91.20
2023-04-02T01:14:01.000Z,91.20
2023-04-02T01:15:01.000Z,91.20
2023-04-02T01:16:01.000Z,91.09
2023-04-02T01:17:01.000Z,90.99
2023-04-02T01:18:01.000Z,90.89
2023-04-02T01:19:01.000Z,90.93
2023-04-02T01:20:01.000Z,90.72
2023-04-02T01:21:01.000Z,90.83
2023-04-02T01:22:01.000Z,90.83
2023-04-02T01:23:01.000Z,90.62
2023-04-02T01:24:01.000Z,90.41
2023-04-02T01:25:01.000Z,90.62
2023-04-02T01:26:01.000Z,90.62
2023-04-02T01:27:01.000Z,90.62
2023-04-02T01:28:01.000Z,90.41
2023-04-02T01:29:01.000Z,90.31
2023-04-02T01:30:01.000Z,90.31
2023-04-02T01:31:01.000Z,90.20
2023-04-02T01:32:01.000Z,90.10
2023-04-02T01:33:01.000Z,90.00
2023-04-02T01:34:01.000Z,90.41
2023-04-02T01:35:01.000Z,90.77
2023-04-02T01:36:01.000Z,90.62
2023-04-02T01:37:01.000Z,90.66
2023-04-02T01:38:01.000Z,90.87
2023-04-02T01:39:01.000Z,90.77
2023-04-02T01:40:01.000Z,90.77
2023-04-02T01:41:01.000Z,90.77
2023-04-02T01:42:01.000Z,90.87
2023-04-02T01:43:01.000Z,90.87
2023-04-02T01:44:01.000Z,90.56
2023-04-02T01:45:01.000Z,90.45
2023-04-02T01:46:01.000Z,90.35
2023-04-02T01:47:01.000Z,90.45
2023-04-02T01:48:01.000Z,90.66
2023-04-02T01:49:01.000Z,90.77
2023-04-02T01:50:01.000Z,90.97
2023-04-02T01:51:01.000Z,91.07
2023-04-02T01:52:00.000Z,91.28
2023-04-02T01:53:00.000Z,91.28
2023-04-02T01:54:00.000Z,91.07
2023-04-02T01:55:00.000Z,91.07
2023-04-02T01:56:00.000Z,91.17
2023-04-02T01:57:00.000Z,91.17
2023-04-02T01:58:00.000Z,90.77
2023-04-02T01:59:00.000Z,90.97
2023-04-02T02:00:00.000Z,91.07
2023-04-02T02:01:00.000Z,91.07
2023-04-02T02:02:00.000Z,91.17
2023-04-02T02:03:00.000Z,91.32
2023-04-02T02:04:00.000Z,91.32
2023-04-02T02:05:00.000Z,91.42
2023-04-02T02:06:00.000Z,91.22
2023-04-02T02:07:00.000Z,90.91
2023-04-02T02:08:00.000Z,90.91
2023-04-02T02:09:00.000Z,91.11
2023-04-02T02:10:00.000Z,91.11
2023-04-02T02:11:00.000Z,91.11
2023-04-02T02:12:00.000Z,90.80
2023-04-02T02:13:00.000Z,90.80
2023-04-02T02:14:00.000Z,90.91
2023-04-02T02:15:00.000Z,91.01
2023-04-02T02:16:00.000Z,90.70
2023-04-02T02:17:00.000Z,90.80
2023-04-02T02:18:00.000Z,90.91
2023-04-02T02:19:00.000Z,91.01
2023-04-02T02:20:00.000Z,91.22
2023-04-02T02:21:00.000Z,91.32
2023-04-02T02:22:00.000Z,91.42
2023-04-02T02:23:00.000Z,91.32
2023-04-02T02:24:00.000Z,91.32
2023-04-02T02:25:00.000Z,91.32
2023-04-02T02:26:00.000Z,91.32
2023-04-02T02:27:00.000Z,91.22
2023-04-02T02:28:00.000Z,91.01
2023-04-02T02:29:00.000Z,91.01
2023-04-02T02:30:00.000Z,91.01
2023-04-02T02:31:00.000Z,91.11
2023-04-02T02:32:00.000Z,91.22
2023-04-02T02:33:00.000Z,91.36
2023-04-02T02:34:00.000Z,91.57
2023-04-02T02:35:00.000Z,91.53
2023-04-02T02:36:00.000Z,91.36
2023-04-02T02:37:00.000Z,91.05
2023-04-02T02:38:00.000Z,91.05
2023-04-02T02:39:00.000Z,91.16
2023-04-02T02:40:00.000Z,91.26
2023-04-02T02:41:00.000Z,91.05
2023-04-02T02:42:00.000Z,91.16
2023-04-02T02:43:00.000Z,91.16
2023-04-02T02:44:00.000Z,91.05
2023-04-02T02:45:00.000Z,91.16
2023-04-02T02:46:00.000Z,91.26
2023-04-02T02:47:00.000Z,91.16
2023-04-02T02:48:00.000Z,91.16
2023-04-02T02:49:00.000Z,91.26
2023-04-02T02:50:00.000Z,91.16
2023-04-02T02:51:00.000Z,91.16
2023-04-02T02:52:00.000Z,91.26
2023-04-02T02:53:00.000Z,91.36
2023-04-02T02:54:00.000Z,91.26
2023-04-02T02:55:00.000Z,91.26
2023-04-02T02:56:00.000Z,91.26
2023-04-02T02:57:00.000Z,91.26
2023-04-02T02:58:00.000Z,91.36
2023-04-02T02:59:00.000Z,91.36
2023-04-02T03:00:00.000Z,91.36
2023-04-02T03:01:00.000Z,91.36
2023-04-02T03:02:00.000Z,91.36
2023-04-02T03:03:00.000Z,91.47
2023-04-02T03:04:00.000Z,91.47
2023-04-02T03:05:00.000Z,91.47
2023-04-02T03:06:00.000Z,91.26
2023-04-02T03:07:00.000Z,91.26
2023-04-02T03:08:00.000Z,91.26
2023-04-02T03:09:00.000Z,91.26
2023-04-02T03:10:00.000Z,91.41
2023-04-02T03:11:00.000Z,91.47
2023-04-02T03:12:00.000Z,91.51
2023-04-02T03:13:00.000Z,91.72
2023-04-02T03:14:00.000Z,91.82
2023-04-02T03:15:00.000Z,91.82
2023-04-02T03:16:00.000Z,91.82
2023-04-02T03:17:00.000Z,91.82
2023-04-02T03:18:00.000Z,91.93
2023-04-02T03:19:00.000Z,92.03
2023-04-02T03:20:00.000Z,91.93
2023-04-02T03:21:00.000Z,91.82
2023-04-02T03:22:00.000Z,91.82
2023-04-02T03:23:00.000Z,91.93
2023-04-02T03:24:00.000Z,91.82
2023-04-02T03:25:00.000Z,91.82
2023-04-02T03:26:00.000Z,91.93
2023-04-02T03:27:00.000Z,91.72
2023-04-02T03:28:00.000Z,91.72
2023-04-02T03:29:00.000Z,91.72
2023-04-02T03:30:00.000Z,91.72
2023-04-02T03:31:00.000Z,91.51
2023-04-02T03:32:00.000Z,91.51
2023-04-02T03:33:00.000Z,91.51
2023-04-02T03:34:00.000Z,91.72
2023-04-02T03:35:00.000Z,91.72
2023-04-02T03:36:00.000Z,91.30
2023-04-02T03:37:00.000Z,91.41
2023-04-02T03:37:59.000Z,91.66
2023-04-02T03:38:59.000Z,91.72
2023-04-02T03:39:59.000Z,91.51
2023-04-02T03:40:59.000Z,91.61
2023-04-02T03:41:59.000Z,91.76
2023-04-02T03:42:59.000Z,91.97
2023-04-02T03:43:59.000Z,91.97
2023-04-02T03:44:59.000Z,91.97
2023-04-02T03:45:59.000Z,92.07
2023-04-02T03:46:59.000Z,92.07
2023-04-02T03:47:59.000Z,92.07
2023-04-02T03:48:59.000Z,92.07
2023-04-02T03:49:59.000Z,92.07
2023-04-02T03:50:59.000Z,91.97
2023-04-02T03:51:59.000Z,91.86
2023-04-02T03:52:59.000Z,91.66
2023-04-02T03:53:59.000Z,91.35
2023-04-02T03:54:59.000Z,91.14
2023-04-02T03:55:59.000Z,91.03
2023-04-02T03:56:59.000Z,91.14
2023-04-02T03:57:59.000Z,91.24
2023-04-02T03:58:59.000Z,91.35
2023-04-02T03:59:59.000Z,91.45
2023-04-02T04:00:59.000Z,91.35
2023-04-02T04:01:59.000Z,91.14
2023-04-02T04:02:59.000Z,91.03
2023-04-02T04:03:59.000Z,90.62
2023-04-02T04:04:59.000Z,90.62
2023-04-02T04:05:59.000Z,90.83
2023-04-02T04:06:59.000Z,90.62
2023-04-02T04:07:59.000Z,90.72
2023-04-02T04:08:59.000Z,90.72
2023-04-02T04:09:59.000Z,90.52
2023-04-02T04:10:59.000Z,90.52
2023-04-02T04:11:59.000Z,90.52
2023-04-02T04:12:59.000Z,90.41
2023-04-02T04:13:59.000Z,90.41
2023-04-02T04:14:59.000Z,90.41
2023-04-02T04:15:59.000Z,90.00
2023-04-02T04:16:59.000Z,89.79
2023-04-02T04:17:59.000Z,90.00
2023-04-02T04:18:59.000Z,90.00
2023-04-02T04:19:59.000Z,90.00
2023-04-02T04:20:59.000Z,90.10
2023-04-02T04:21:59.000Z,90.00
2023-04-02T04:22:59.000Z,89.89
2023-04-02T04:23:59.000Z,89.83
2023-04-02T04:24:59.000Z,90.04
2023-04-02T04:25:59.000Z,90.25
2023-04-02T04:26:59.000Z,90.35
2023-04-02T04:27:59.000Z,90.45
2023-04-02T04:28:59.000Z,90.45
2023-04-02T04:29:59.000Z,90.35
2023-04-02T04:30:59.000Z,90.35
2023-04-02T04:31:59.000Z,90.35
2023-04-02T04:32:59.000Z,90.56
2023-04-02T04:33:59.000Z,90.66
2023-04-02T04:34:59.000Z,90.77
2023-04-02T04:35:59.000Z,90.77
2023-04-02T04:36:59.000Z,90.77
2023-04-02T04:37:59.000Z,90.77
2023-04-02T04:38:59.000Z,90.77
2023-04-02T04:39:59.000Z,90.77
2023-04-02T04:40:59.000Z,90.45
2023-04-02T04:41:59.000Z,90.25
2023-04-02T04:42:59.000Z,89.73
2023-04-02T04:43:59.000Z,89.52
2023-04-02T04:44:59.000Z,89.62
2023-04-02T04:45:59.000Z,89.73
2023-04-02T04:46:59.000Z,89.83
2023-04-02T04:47:59.000Z,89.94
2023-04-02T04:48:59.000Z,89.94
2023-04-02T04:49:59.000Z,90.04
2023-04-02T04:50:59.000Z,89.83
2023-04-02T04:51:59.000Z,89.73
2023-04-02T04:52:59.000Z,89.73
2023-04-02T04:53:59.000Z,89.73
2023-04-02T04:54:59.000Z,89.73
2023-04-02T04:55:59.000Z,89.31
2023-04-02T04:56:59.000Z,89.31
2023-04-02T04:57:59.000Z,89.31
2023-04-02T04:58:59.000Z,89.31
2023-04-02T04:59:59.000Z,89.42
2023-04-02T05:00:59.000Z,89.42
2023-04-02T05:01:59.000Z,89.52
2023-04-02T05:02:59.000Z,89.21
2023-04-02T05:03:59.000Z,89.21
2023-04-02T05:04:59.000Z,89.11
2023-04-02T05:05:59.000Z,89.11
2023-04-02T05:06:59.000Z,89.00
2023-04-02T05:07:59.000Z,89.00
2023-04-02T05:08:59.000Z,89.21
2023-04-02T05:09:59.000Z,89.21
2023-04-02T05:10:59.000Z,89.21
2023-04-02T05:11:59.000Z,89.21
2023-04-02T05:12:59.000Z,89.11
2023-04-02T05:13:59.000Z,89.11
2023-04-02T05:14:59.000Z,89.21
2023-04-02T05:15:59.000Z,89.21
2023-04-02T05:16:59.000Z,89.11
2023-04-02T05:17:59.000Z,88.59
2023-04-02T05:18:59.000Z,88.59
2023-04-02T05:19:59.000Z,88.79
2023-04-02T05:20:59.000Z,88.90
2023-04-02T05:21:59.000Z,89.11
2023-04-02T05:22:59.000Z,89.21
2023-04-02T05:23:58.000Z,89.31
2023-04-02T05:24:58.000Z,89.21
2023-04-02T05:25:58.000Z,89.21
2023-04-02T05:26:58.000Z,89.31
2023-04-02T05:27:58.000Z,89.42
2023-04-02T05:28:58.000Z,89.42
2023-04-02T05:29:58.000Z,89.52
2023-04-02T05:30:58.000Z,89.46
2023-04-02T05:31:58.000Z,89.21
2023-04-02T05:32:58.000Z,89.00
2023-04-02T05:33:58.000Z,89.00
2023-04-02T05:34:58.000Z,89.00
2023-04-02T05:35:58.000Z,89.11
2023-04-02T05:36:58.000Z,89.00
2023-04-02T05:37:58.000Z,88.79
2023-04-02T05:38:58.000Z,88.79
2023-04-02T05:39:58.000Z,88.48
2023-04-02T05:40:58.000Z,88.18
2023-04-02T05:41:58.000Z,88.32
2023-04-02T05:42:58.000Z,88.42
2023-04-02T05:43:58.000Z,88.42
2023-04-02T05:44:58.000Z,88.42
2023-04-02T05:45:58.000Z,88.11
2023-04-02T05:46:58.000Z,87.97
2023-04-02T05:47:58.000Z,88.01
2023-04-02T05:48:58.000Z,87.66
2023-04-02T05:49:58.000Z,87.55
2023-04-02T05:50:58.000Z,87.76
2023-04-02T05:51:58.000Z,87.55
2023-04-02T05:52:58.000Z,87.38
2023-04-02T05:52:58.000Z,87.38
2023-04-02T05:53:58.000Z,87.38
2023-04-02T05:53:58.000Z,87.38
2023-04-02T05:54:58.000Z,87.24
2023-04-02T05:54:58.000Z,87.24
2023-04-02T05:55:58.000Z,87.28
2023-04-02T05:55:58.000Z,87.28
2023-04-02T05:56:58.000Z,87.14
2023-04-02T05:56:58.000Z,87.14
2023-04-02T05:57:58.000Z,87.24
2023-04-02T05:58:58.000Z,87.18
2023-04-02T05:59:58.000Z,87.18
2023-04-02T06:00:58.000Z,87.28
2023-04-02T06:01:58.000Z,87.18
2023-04-02T06:02:58.000Z,87.07
2023-04-02T06:03:58.000Z,87.18
2023-04-02T06:04:58.000Z,87.18
2023-04-02T06:05:58.000Z,87.24
2023-04-02T06:06:58.000Z,87.38
2023-04-02T06:07:58.000Z,87.28
2023-04-02T06:08:58.000Z,87.18
2023-04-02T06:09:58.000Z,87.18
2023-04-02T06:10:58.000Z,86.93
2023-04-02T06:11:58.000Z,86.83
2023-04-02T06:12:58.000Z,86.93
2023-04-02T06:13:58.000Z,87.14
2023-04-02T06:14:58.000Z,87.14
2023-04-02T06:15:58.000Z,86.83
2023-04-02T06:16:58.000Z,86.62
2023-04-02T06:17:58.000Z,86.62
2023-04-02T06:18:58.000Z,86.41
2023-04-02T06:19:58.000Z,86.31
2023-04-02T06:20:58.000Z,86.21
2023-04-02T06:21:58.000Z,86.00
2023-04-02T06:22:58.000Z,85.27
2023-04-02T06:23:58.000Z,85.06
2023-04-02T06:24:58.000Z,85.38
2023-04-02T06:25:58.000Z,85.38
2023-04-02T06:26:58.000Z,85.48
2023-04-02T06:27:58.000Z,85.58
2023-04-02T06:28:58.000Z,85.48
2023-04-02T06:29:58.000Z,85.48
2023-04-02T06:30:58.000Z,85.69
2023-04-02T06:31:58.000Z,85.79
2023-04-02T06:32:58.000Z,85.79
2023-04-02T06:33:58.000Z,85.89
2023-04-02T06:34:58.000Z,85.89
2023-04-02T06:35:58.000Z,85.48
2023-04-02T06:36:58.000Z,85.17
2023-04-02T06:37:58.000Z,85.27
2023-04-02T06:38:58.000Z,85.06
2023-04-02T06:39:58.000Z,85.03
2023-04-02T06:40:58.000Z,84.72
2023-04-02T06:41:58.000Z,84.09
2023-04-02T06:42:58.000Z,83.37
2023-04-02T06:43:58.000Z,83.47
2023-04-02T06:44:58.000Z,83.62
2023-04-02T06:45:58.000Z,83.26
2023-04-02T06:46:58.000Z,83.37
2023-04-02T06:47:58.000Z,83.51
2023-04-02T06:48:58.000Z,82.75
2023-04-02T06:49:58.000Z,82.68
2023-04-02T06:50:58.000Z,82.86
2023-04-02T06:51:58.000Z,82.86
2023-04-02T06:52:58.000Z,82.89
2023-04-02T06:53:58.000Z,82.54
2023-04-02T06:54:58.000Z,82.48
2023-04-02T06:55:58.000Z,82.27
2023-04-02T06:56:58.000Z,82.03
2023-04-02T06:57:58.000Z,82.17
2023-04-02T06:58:58.000Z,82.34
2023-04-02T06:59:58.000Z,82.65
2023-04-02T07:00:58.000Z,82.65
2023-04-02T07:01:58.000Z,82.44
2023-04-02T07:02:58.000Z,82.23
2023-04-02T07:03:58.000Z,82.34
2023-04-02T07:04:58.000Z,82.03
2023-04-02T07:05:58.000Z,81.82
2023-04-02T07:06:58.000Z,81.40
2023-04-02T07:07:58.000Z,81.61
2023-04-02T07:08:58.000Z,82.03
2023-04-02T07:09:57.000Z,81.51
2023-04-02T07:10:57.000Z,81.51
2023-04-02T07:11:57.000Z,81.82
2023-04-02T07:12:57.000Z,82.13
2023-04-02T07:13:57.000Z,81.61
2023-04-02T07:14:57.000Z,81.51
2023-04-02T07:15:57.000Z,81.51
2023-04-02T07:16:57.000Z,81.51
2023-04-02T07:17:57.000Z,81.30
2023-04-02T07:18:57.000Z,81.16
2023-04-02T07:19:57.000Z,80.95
2023-04-02T07:20:57.000Z,79.71
2023-04-02T07:21:57.000Z,79.91
2023-04-02T07:22:57.000Z,79.40
2023-04-02T07:23:57.000Z,79.50
2023-04-02T07:24:57.000Z,79.60
2023-04-02T07:25:57.000Z,79.91
2023-04-02T07:26:57.000Z,80.02
2023-04-02T07:27:57.000Z,79.71
2023-04-02T07:28:57.000Z,79.30
2023-04-02T07:29:57.000Z,79.30
2023-04-02T07:30:57.000Z,78.99
2023-04-02T07:31:57.000Z,78.26
2023-04-02T07:32:57.000Z,77.43
2023-04-02T07:33:57.000Z,77.53
2023-04-02T07:34:57.000Z,77.01
2023-04-02T07:35:57.000Z,76.98
2023-04-02T07:36:57.000Z,77.43
2023-04-02T07:37:57.000Z,77.60
2023-04-02T07:38:57.000Z,77.74
2023-04-02T07:39:57.000Z,77.39
2023-04-02T07:40:57.000Z,77.09
2023-04-02T07:41:57.000Z,77.19
2023-04-02T07:42:57.000Z,77.29
2023-04-02T07:43:57.000Z,77.19
2023-04-02T07:44:57.000Z,76.67
2023-04-02T07:45:57.000Z,76.67
2023-04-02T07:46:57.000Z,77.09
2023-04-02T07:47:57.000Z,77.39
2023-04-02T07:48:57.000Z,77.29
2023-04-02T07:49:57.000Z,77.50
2023-04-02T07:50:57.000Z,77.70
2023-04-02T07:51:57.000Z,77.70
2023-04-02T07:52:57.000Z,77.19
2023-04-02T07:53:57.000Z,77.39
2023-04-02T07:54:57.000Z,77.60
2023-04-02T07:55:57.000Z,77.50
2023-04-02T07:56:57.000Z,77.39
2023-04-02T07:57:57.000Z,77.39
2023-04-02T07:58:57.000Z,77.39
2023-04-02T07:59:57.000Z,76.98
2023-04-02T08:00:57.000Z,77.29
2023-04-02T08:01:57.000Z,77.19
2023-04-02T08:02:57.000Z,77.39
2023-04-02T08:03:57.000Z,77.29
2023-04-02T08:04:57.000Z,77.09
2023-04-02T08:05:57.000Z,77.09
2023-04-02T08:06:57.000Z,77.29
2023-04-02T08:07:57.000Z,77.60
2023-04-02T08:08:57.000Z,77.70
2023-04-02T08:09:57.000Z,77.91
2023-04-02T08:10:57.000Z,77.60
2023-04-02T08:11:57.000Z,76.78
2023-04-02T08:12:57.000Z,76.98
2023-04-02T08:13:57.000Z,77.26
2023-04-02T08:14:57.000Z,77.29
2023-04-02T08:15:57.000Z,77.05
2023-04-02T08:16:57.000Z,76.74
2023-04-02T08:17:57.000Z,76.84
2023-04-02T08:18:57.000Z,76.84
2023-04-02T08:19:57.000Z,76.98
2023-04-02T08:20:57.000Z,76.78
2023-04-02T08:21:57.000Z,76.98
2023-04-02T08:22:57.000Z,77.29
2023-04-02T08:23:57.000Z,77.29
2023-04-02T08:24:57.000Z,77.19
2023-04-02T08:25:57.000Z,77.29
2023-04-02T08:26:57.000Z,77.50
2023-04-02T08:27:57.000Z,77.70
2023-04-02T08:28:57.000Z,77.60
2023-04-02T08:29:57.000Z,77.70
2023-04-02T08:30:57.000Z,77.81
2023-04-02T08:31:57.000Z,77.70
2023-04-02T08:32:57.000Z,77.29
2023-04-02T08:33:57.000Z,77.15
2023-04-02T08:34:57.000Z,76.78
2023-04-02T08:35:57.000Z,76.67
2023-04-02T08:36:57.000Z,76.78
2023-04-02T08:37:57.000Z,76.98
2023-04-02T08:38:57.000Z,77.19
2023-04-02T08:39:57.000Z,77.39
2023-04-02T08:40:57.000Z,77.60
2023-04-02T08:41:57.000Z,77.81
2023-04-02T08:42:57.000Z,78.08
2023-04-02T08:43:57.000Z,78.22
2023-04-02T08:44:57.000Z,77.67
2023-04-02T08:45:57.000Z,77.56
2023-04-02T08:46:57.000Z,77.60
2023-04-02T08:47:57.000Z,77.56
2023-04-02T08:48:57.000Z,77.36
2023-04-02T08:49:57.000Z,76.95
2023-04-02T08:50:57.000Z,76.84
2023-04-02T08:51:57.000Z,76.74
2023-04-02T08:52:57.000Z,76.74
2023-04-02T08:53:56.000Z,76.74
2023-04-02T08:54:56.000Z,76.84
2023-04-02T08:55:56.000Z,76.95
2023-04-02T08:56:56.000Z,76.53
2023-04-02T08:57:56.000Z,76.53
2023-04-02T08:58:56.000Z,76.39
2023-04-02T08:59:56.000Z,76.09
2023-04-02T09:00:56.000Z,76.09
2023-04-02T09:01:56.000Z,75.78
2023-04-02T09:02:56.000Z,75.78
2023-04-02T09:03:56.000Z,75.88
2023-04-02T09:04:56.000Z,75.78
2023-04-02T09:05:56.000Z,75.78
2023-04-02T09:06:56.000Z,75.78
2023-04-02T09:07:56.000Z,75.67
2023-04-02T09:08:56.000Z,75.67
2023-04-02T09:09:56.000Z,75.88
2023-04-02T09:10:56.000Z,76.09
2023-04-02T09:11:56.000Z,76.18
2023-04-02T09:12:56.000Z,76.18
2023-04-02T09:13:56.000Z,76.26
2023-04-02T09:14:56.000Z,76.39
2023-04-02T09:15:56.000Z,76.26
2023-04-02T09:16:56.000Z,75.63
2023-04-02T09:17:56.000Z,75.32
2023-04-02T09:18:56.000Z,75.43
2023-04-02T09:19:56.000Z,75.32
2023-04-02T09:20:56.000Z,75.15
2023-04-02T09:21:56.000Z,75.32
2023-04-02T09:22:56.000Z,75.53
2023-04-02T09:23:56.000Z,75.15
2023-04-02T09:24:56.000Z,75.36
2023-04-02T09:25:56.000Z,75.05
2023-04-02T09:26:56.000Z,75.15
2023-04-02T09:27:56.000Z,75.46
2023-04-02T09:28:56.000Z,75.57
2023-04-02T09:29:56.000Z,75.57
2023-04-02T09:30:56.000Z,74.74
2023-04-02T09:31:56.000Z,74.95
2023-04-02T09:32:56.000Z,75.46
2023-04-02T09:33:56.000Z,75.78
2023-04-02T09:34:56.000Z,75.84
2023-04-02T09:35:56.000Z,75.32
2023-04-02T09:36:56.000Z,75.22
2023-04-02T09:37:56.000Z,75.22
2023-04-02T09:38:56.000Z,75.32
2023-04-02T09:39:56.000Z,75.22
2023-04-02T09:40:56.000Z,75.53
2023-04-02T09:41:56.000Z,75.95
2023-04-02T09:42:56.000Z,76.15
2023-04-02T09:43:56.000Z,75.84
2023-04-02T09:44:56.000Z,75.84
2023-04-02T09:45:56.000Z,75.74
2023-04-02T09:46:56.000Z,75.63
2023-04-02T09:47:56.000Z,75.53
2023-04-02T09:48:56.000Z,75.53
2023-04-02T09:49:56.000Z,75.53
2023-04-02T09:50:56.000Z,75.60
2023-04-02T09:51:56.000Z,75.29
2023-04-02T09:52:56.000Z,75.09
2023-04-02T09:53:56.000Z,75.29
2023-04-02T09:54:56.000Z,74.88
2023-04-02T09:55:56.000Z,74.57
2023-04-02T09:56:56.000Z,74.36
2023-04-02T09:57:56.000Z,74.57
2023-04-02T09:58:56.000Z,74.46
2023-04-02T09:59:56.000Z,74.15
2023-04-02T10:00:56.000Z,74.36
2023-04-02T10:01:56.000Z,74.05
2023-04-02T10:02:56.000Z,74.15
2023-04-02T10:03:56.000Z,74.05
2023-04-02T10:04:56.000Z,74.43
2023-04-02T10:05:56.000Z,74.74
2023-04-02T10:06:56.000Z,74.53
2023-04-02T10:07:56.000Z,73.91
2023-04-02T10:08:56.000Z,73.91
2023-04-02T10:09:56.000Z,73.91
2023-04-02T10:10:56.000Z,73.71
2023-04-02T10:11:56.000Z,72.47
2023-04-02T10:12:56.000Z,72.78
2023-04-02T10:13:56.000Z,72.88
2023-04-02T10:14:56.000Z,72.99
2023-04-02T10:15:56.000Z,73.19
2023-04-02T10:16:56.000Z,73.19
2023-04-02T10:17:56.000Z,73.19
2023-04-02T10:18:56.000Z,73.19
2023-04-02T10:19:56.000Z,72.57
2023-04-02T10:20:56.000Z,72.54
2023-04-02T10:21:56.000Z,72.64
2023-04-02T10:22:56.000Z,72.67
2023-04-02T10:23:56.000Z,72.74
2023-04-02T10:24:56.000Z,72.36
2023-04-02T10:25:56.000Z,72.57
2023-04-02T10:26:56.000Z,72.85
2023-04-02T10:27:56.000Z,72.85
2023-04-02T10:28:56.000Z,72.85
2023-04-02T10:29:56.000Z,72.74
2023-04-02T10:30:56.000Z,72.85
2023-04-02T10:31:56.000Z,72.44
2023-04-02T10:32:56.000Z,71.92
2023-04-02T10:33:56.000Z,71.92
2023-04-02T10:34:56.000Z,72.09
2023-04-02T10:35:56.000Z,72.19
2023-04-02T10:36:56.000Z,71.68
2023-04-02T10:37:55.000Z,71.26
2023-04-02T10:38:55.000Z,71.37
2023-04-02T10:39:55.000Z,71.16
2023-04-02T10:40:55.000Z,71.26
2023-04-02T10:41:55.000Z,71.26
2023-04-02T10:42:55.000Z,70.65
2023-04-02T10:43:55.000Z,70.65
2023-04-02T10:44:55.000Z,70.92
2023-04-02T10:45:55.000Z,71.23
2023-04-02T10:46:55.000Z,71.03
2023-04-02T10:47:55.000Z,70.92
2023-04-02T10:48:55.000Z,70.92
2023-04-02T10:49:55.000Z,70.68
2023-04-02T10:50:55.000Z,69.55
2023-04-02T10:51:55.000Z,70.48
2023-04-02T10:52:55.000Z,70.17
2023-04-02T10:53:55.000Z,70.07
2023-04-02T10:54:55.000Z,70.37
2023-04-02T10:55:55.000Z,68.62
2023-04-02T10:56:55.000Z,69.24
2023-04-02T10:57:55.000Z,69.24
2023-04-02T10:58:55.000Z,69.45
2023-04-02T10:59:55.000Z,69.11
2023-04-02T11:00:55.000Z,69.01
2023-04-02T11:01:55.000Z,68.39
2023-04-02T11:02:55.000Z,68.80
2023-04-02T11:03:55.000Z,69.01
2023-04-02T11:04:55.000Z,69.01
2023-04-02T11:05:55.000Z,69.21
2023-04-02T11:06:55.000Z,69.11
2023-04-02T11:07:55.000Z,68.90
2023-04-02T11:08:55.000Z,68.46
2023-04-02T11:09:55.000Z,67.94
2023-04-02T11:10:55.000Z,68.25
2023-04-02T11:11:55.000Z,68.46
2023-04-02T11:12:55.000Z,68.98
2023-04-02T11:13:55.000Z,69.07
2023-04-02T11:14:55.000Z,68.94
2023-04-02T11:15:55.000Z,68.63
2023-04-02T11:16:55.000Z,68.74
2023-04-02T11:17:55.000Z,68.53
2023-04-02T11:18:55.000Z,68.32
2023-04-02T11:19:55.000Z,67.81
2023-04-02T11:20:55.000Z,67.26
2023-04-02T11:21:55.000Z,67.68
2023-04-02T11:22:55.000Z,67.68
2023-04-02T11:23:55.000Z,67.78
2023-04-02T11:24:55.000Z,67.54
2023-04-02T11:25:55.000Z,67.65
2023-04-02T11:26:55.000Z,67.23
2023-04-02T11:27:55.000Z,66.93
2023-04-02T11:28:55.000Z,66.61
2023-04-02T11:29:55.000Z,66.51
2023-04-02T11:30:55.000Z,66.48
2023-04-02T11:31:55.000Z,66.38
2023-04-02T11:32:55.000Z,66.48
2023-04-02T11:33:55.000Z,66.66
2023-04-02T11:34:55.000Z,66.25
2023-04-02T11:35:55.000Z,65.83
2023-04-02T11:36:55.000Z,65.50
2023-04-02T11:37:55.000Z,65.39
2023-04-02T11:38:55.000Z,65.57
2023-04-02T11:39:55.000Z,65.57
2023-04-02T11:40:55.000Z,65.47
2023-04-02T11:41:55.000Z,65.47
2023-04-02T11:42:55.000Z,65.36
2023-04-02T11:43:55.000Z,64.51
2023-04-02T11:44:55.000Z,63.79
2023-04-02T11:45:55.000Z,63.49
2023-04-02T11:46:55.000Z,63.59
2023-04-02T11:47:55.000Z,63.93
2023-04-02T11:48:55.000Z,64.00
2023-04-02T11:49:55.000Z,63.79
2023-04-02T11:50:55.000Z,63.28
2023-04-02T11:51:55.000Z,62.90
2023-04-02T11:52:55.000Z,62.46
2023-04-02T11:53:55.000Z,62.90
2023-04-02T11:54:55.000Z,62.18
2023-04-02T11:55:55.000Z,62.08
2023-04-02T11:56:55.000Z,62.08
2023-04-02T11:57:55.000Z,62.08
2023-04-02T11:58:55.000Z,62.29
2023-04-02T11:59:55.000Z,61.70
2023-04-02T12:00:55.000Z,62.21
2023-04-02T12:01:55.000Z,62.31
2023-04-02T12:02:55.000Z,61.70
2023-04-02T12:03:55.000Z,61.90
2023-04-02T12:04:55.000Z,62.41
2023-04-02T12:05:55.000Z,62.75
2023-04-02T12:06:55.000Z,62.96
2023-04-02T12:07:55.000Z,62.85
2023-04-02T12:08:55.000Z,62.85
2023-04-02T12:09:55.000Z,62.65
2023-04-02T12:10:55.000Z,62.85
2023-04-02T12:11:55.000Z,63.47
2023-04-02T12:12:55.000Z,63.89
2023-04-02T12:13:55.000Z,64.09
2023-04-02T12:14:55.000Z,63.89
2023-04-02T12:15:55.000Z,63.50
2023-04-02T12:16:55.000Z,63.60
2023-04-02T12:17:55.000Z,62.68
2023-04-02T12:18:55.000Z,62.06
2023-04-02T12:19:54.000Z,63.12
2023-04-02T12:20:54.000Z,63.74
2023-04-02T12:21:54.000Z,63.64
2023-04-02T12:22:54.000Z,63.64
2023-04-02T12:23:54.000Z,64.04
2023-04-02T12:24:54.000Z,63.84
2023-04-02T12:25:54.000Z,63.64
2023-04-02T12:26:54.000Z,64.25
2023-04-02T12:27:54.000Z,64.04
2023-04-02T12:28:54.000Z,64.25
2023-04-02T12:29:54.000Z,62.30
2023-04-02T12:30:54.000Z,63.53
2023-04-02T12:31:54.000Z,64.25
2023-04-02T12:32:54.000Z,64.56
2023-04-02T12:33:54.000Z,64.66
2023-04-02T12:34:54.000Z,64.56
2023-04-02T12:35:54.000Z,64.66
2023-04-02T12:36:54.000Z,64.84
2023-04-02T12:37:54.000Z,64.94
2023-04-02T12:38:54.000Z,64.84
2023-04-02T12:39:54.000Z,64.63
2023-04-02T12:40:54.000Z,64.50
2023-04-02T12:41:54.000Z,64.60
2023-04-02T12:42:54.000Z,64.81
2023-04-02T12:43:54.000Z,64.50
2023-04-02T12:44:54.000Z,64.60
2023-04-02T12:45:54.000Z,63.57
2023-04-02T12:46:54.000Z,64.09